Terminal Aerodrome Forecast
Issued by NWS

Current Version | Previous Version | Graphics & Text | Print | Product List | Glossary On
Versions: 1 2 3 4 5 6 7 8 9 10 11 12 13 14 15 16 17 18 19 20 21 22 23 24 25 26 27 28 29
000
FTUS41 KILN 291100 RRA
TAFLCK
TAF
KLCK 291143Z 2912/3012 18011KT P6SM BKN060 OVC120
      TEMPO 2912/2914 5SM -FZRA
     FM291700 21015G25KT P6SM VCSH BKN025 OVC120
     FM292200 26017G27KT P6SM OVC009
     FM300300 29015G23KT P6SM OVC012
     FM301000 30014G22KT P6SM OVC022=

USA.gov is the U.S. government's official web portal to all federal, state and local government web resources and services.